Scroll down
FLIGHT INFORMATION
American Airlines

AAL1933

At Arrival Gate

KPHX
 KORD
DATE: 2020-03-17
GATE:  -
GATE DEPARTURE: 23:58
TAKEOFF: 00:07
DATE: 2020-03-18
GATE:  -
LANDING: 02:50
GATE ARRIVAL: 02:59
FLIGHT DATA
Crew: 
Speed: 
473 kts
Altitude: 
35,123 ft
Stage Length: 
1,249.1 nm
Block Time: 
3 hrs
Flight Time: 
2.7 hrs
Fuel Used: 
17,295 lb
Cleared Route: 
TRACK DATA
50,000 ft 1,000 kts
AIRCRAFT INFO AND CUMULATIVE STATS
Aircraft Type: 
B738BW
Registration: 
SELCAL: 
GHAC
MSN/LN: 
33227 / 4322
Operator: 
Total Flights: 
43
Total Block Time: 
82.7 hrs
Total Flight Time: 
70.8 hrs
Total Fuel Time: 
477,269 lb
DATALINK LOG | Newest first | Current as of: 2020-12-01 20:54:43
LABEL SEQUENCE CONTENT Dn/Up
QD592902:59 16.2▼ Dn
QC514202:50▼ Dn
2U3416KORD 170051Z 24004KT 6SM -DZ BR SCT008 BKN011 OVC019 04/02 A3016 RMK AO2 DZE31B49 SLP219 P0000 T00390017▲ Up
2S3416KORD▼ Dn
2U3003KORD 170051Z 24004KT 6SM -DZ BR SCT008 BKN011 OVC019 04/02 A3016 RMK AO2 DZE31B49 SLP219 P0000 T00390017▲ Up
2S3003KORD▼ Dn
2U1345KORD 170051Z 24004KT 6SM -DZ BR SCT008 BKN011 OVC019 04/02 A3016 RMK AO2 DZE31B49 SLP219 P0000 T00390017▲ Up
GA5456ADVANCED GATE ASSIGNMENTS NOT YET AVAILABLE AT THIS AIRPORT▲ Up
GR1307KORD --:-- MAAS 00 YP/UM 00/00 WCHR/S/C 03/00/00 HI-VAL YES DIPL/VIP NO▼ Dn
2S1345KORD▼ Dn
QB071200:07▼ Dn
QA595223:58 33.5▼ Dn
5U4946KORD 170346Z 23007KT 6SM BR BKN014 OVC020 04/02 A3015▲ Up
2U4937KPHX 162251Z 21007G15KT 10SM FEW050 OVC250 25/06 A2987 RMK AO2 SLP105 T02500061▲ Up
5S4946KORD▼ Dn
2S4937KPHX▼ Dn
A34855CLEARED TO KORD VIA FORPE1 ABQ FTI J18 SLN J96 IRK BENKY5. SQUAWK 5641.▲ Up
Q04753[LINK ACK]▲ Up
Q04516[LINK TEST]▼ Dn


AIRCRAFT HISTORY
FLIGHT DATE FLIGHT NO. ORIGIN DESTINATION CLEARED ROUTE BLOCK TIME FLIGHT TIME FUEL USED PILOT
2020-10-30AAL713KCLT KMSY KCLT IPTAY CHOPZ ATL MGM SJI KMSY2 hrs1.7 hrs11,251 lbCharles Harris
2020-09-13AAL413KJFK KCLT KJFK RBV COPES MXE STOEN SACRI MURPH TOOBN HAMMZ GVE LYH KCLT1.9 hrs1.7 hrs10,766 lbCharles Harris
2020-08-13AAL369KDCA KJFK KDCA SIE BOTON HOGGS PANZE KARRS CAMRN ZETAL RW04R1.1 hrs0.9 hrs7,598 lbken rose
2020-07-17AAL1320KORD KDCA KORD MOBLE ADIME OTENS ANEWA JERRI NUSMM BUCKO FRDMM KDCA1.5 hrs1.3 hrs8,855 lbmike teague
2020-07-12AAL2780KDEN KORD KDEN NUGGS HIDEF SHOBO LUPTN MRENE EEONS WYNDM HCT OBH MYRRS KORD2.2 hrs1.8 hrs12,298 lbMichael Roth
2020-07-12AAL712KJAC KDEN KJAC SWEAT TOFUU KDEN1.4 hrs1.1 hrs7,291 lbMarc Ehnle
2020-07-11AAL711KBZN KJAC KBZN BOY QUIRT KJAC0.7 hrs0.5 hrs4,668 lbMarc Ehnle
2020-06-11AAL2783KDFW KBZN KDFW SPERA JGIRL CORTS BIGGD CMORE LOWGN ADM MRMAC ROLLS LBL DRAWL LAA HGO QUAIL FQF LAR BOY BRIGR RW123.1 hrs2.8 hrs16,095 lbDan Downs
2020-06-11AAL2904KSFO KDFW KSFO TYDYE TRUKN COSMC SYRAH JSICA ILC BCE RSK ESPAN FTI MDANO KDFW3.4 hrs3 hrs17,953 lbMichael Roth
2020-06-10AAL2639KORD KSFO KORD OLINN OREOS OBENE OGALE LNK DRABS HCT VOAXA ELLFF WEEMN MANRD TRALP GDGET CRLES KATTS RUMPS OAL INYOE KSFO4.3 hrs3.9 hrs22,945 lbMichael Roth
2020-05-31AAL3790KMSP KORD KMSP RST ZZIPR WELCM TEEOO MITEE BHAWK STNLE CUUPP CHMPN CLSBY FYTTE MOTRR COGSS MADII SOOLU KURKK VULCN HIMGO RRUDA RW10C1 hrs0.8 hrs6,131 lbGeorge M
2020-05-20AAL3728KORD KMSP 1.3 hrs1 hrs6,894 lbGeorge M
2020-03-31AAL2765KPHX KORD 3 hrs2.7 hrs17,821 lbGeorge M
2020-03-30AAL889KLAX KPHX 1.3 hrs1 hrs6,983 lbGeorge M
2020-03-30AAL1029KORD KLAX 4.1 hrs3.8 hrs25,820 lbGeorge M
2020-03-29AAL4178KMSP KORD 1.2 hrs0.9 hrs6,909 lbGeorge M
2020-03-29AAL4178KORD KMSP 1.1 hrs0.9 hrs6,817 lbGeorge M
2020-03-29AAL190KPHX KORD 3 hrs2.7 hrs16,982 lbGeorge M
2020-03-28AAL815KORD KPHX 3.9 hrs3.7 hrs23,775 lbGeorge M
2020-03-28AAL4178KMSP KORD 1.1 hrs0.9 hrs7,214 lbGeorge M
2020-03-28AAL4178KORD KMSP 1.3 hrs1 hrs8,375 lbGeorge M
2020-03-21AAL721KIAD KORD 1.9 hrs1.7 hrs11,199 lbGeorge M
2020-03-20AAL843KORD KIAD 1.7 hrs1.3 hrs9,364 lbGeorge M
2020-03-17AAL1933KPHX KORD 3 hrs2.7 hrs17,295 lbGeorge M
2020-03-16AAL2979KSBA KPHX 1.4 hrs1.2 hrs8,093 lbGeorge M
2020-03-16AAL1836KPHX KSBA 1.7 hrs1.4 hrs8,745 lbGeorge M
2020-03-15AAL372KMSP KPHX 3.2 hrs2.9 hrs20,634 lbGeorge M
2020-03-14AAL3200KORD KMSP 1.3 hrs1 hrs7,486 lbGeorge M
2020-03-06AAL3978KCLE KORD 1.5 hrs1 hrs7,684 lbGeorge M
2020-03-03AAL519KCLT KCLE 1.4 hrs1.1 hrs7,413 lbSteven Perry
2020-03-02AAL519KPVD KCLT 2 hrs1.8 hrs10,928 lbSteven Perry
2020-03-02AAL519KPHL KPVD 1.1 hrs0.8 hrs6,082 lbSteven Perry
2020-02-23AAL519KCLE KPHL 1.2 hrs1 hrs6,109 lbSteven Perry
2020-02-23AAL519KORD KCLE 1.2 hrs0.8 hrs6,006 lbSteven Perry
2020-02-15AAL814KDFW KORD 2 hrs1.7 hrs11,306 lbGeorge M
2020-02-15AAL1519KORD KDFW 2.3 hrs1.9 hrs12,486 lbSteven Perry
2020-02-10AAL1101KTPA KORD 2.7 hrs2.4 hrs16,386 lbGeorge M
2020-02-09AAL1101KORD KTPA 2.4 hrs2.2 hrs14,471 lbGeorge M
2020-02-09AAL4193KSDF KORD 1.4 hrs1.1 hrs7,662 lbGeorge M
2020-02-02AAL4076KORD KSDF 1 hrs0.7 hrs6,068 lbGeorge M
2020-01-26AAL2080KCLT KORD 1.8 hrs1.4 hrs10,213 lbGeorge M
2020-01-21AAL121KMSY KCLT 1.8 hrs1.5 hrs9,676 lbCharles Harris
2020-01-06AAL2013KDFW KMSY 1.5 hrs1.1 hrs8,523 lbCharles Harris